createdAt,value
2022-08-05T00:00:00.561Z,60.4
2022-08-05T00:01:20.031Z,60.5
2022-08-05T00:02:07.765Z,60.5
2022-08-05T00:03:00.281Z,60.5
2022-08-05T00:04:00.444Z,60.6
2022-08-05T00:05:00.309Z,60.5
2022-08-05T00:06:04.662Z,60.8
2022-08-05T00:07:00.467Z,60.8
2022-08-05T00:08:01.543Z,60.8
2022-08-05T00:09:01.028Z,60.7
2022-08-05T00:10:00.362Z,61.0
2022-08-05T00:11:02.333Z,61.2
2022-08-05T00:12:00.297Z,61.0
2022-08-05T00:13:00.274Z,61.0
2022-08-05T00:14:02.222Z,60.9
2022-08-05T00:15:54.184Z,61.2
2022-08-05T00:16:00.632Z,61.2
2022-08-05T00:17:01.710Z,61.3
2022-08-05T00:18:00.274Z,61.3
2022-08-05T00:19:00.310Z,61.6
2022-08-05T00:20:02.396Z,61.3
2022-08-05T00:21:00.257Z,61.4
2022-08-05T00:22:01.040Z,61.4
2022-08-05T00:23:12.508Z,61.7
2022-08-05T00:24:10.575Z,61.8
2022-08-05T00:25:00.257Z,62.3
2022-08-05T00:26:00.215Z,62.1
2022-08-05T00:27:00.802Z,62.4
2022-08-05T00:28:00.265Z,62.3
2022-08-05T00:29:00.270Z,62.4
2022-08-05T00:30:03.108Z,62.4
2022-08-05T00:31:04.121Z,62.3
2022-08-05T00:32:12.742Z,62.3
2022-08-05T00:33:00.348Z,62.2
2022-08-05T00:34:55.196Z,62.8
2022-08-05T00:35:06.603Z,62.7
2022-08-05T00:36:16.581Z,63.0
2022-08-05T00:37:11.094Z,63.1
2022-08-05T00:38:00.807Z,63.4
2022-08-05T00:39:00.312Z,63.3
2022-08-05T00:40:00.590Z,63.4
2022-08-05T00:41:00.278Z,63.8
2022-08-05T00:42:00.299Z,63.7
2022-08-05T00:43:07.454Z,63.4
2022-08-05T00:44:00.916Z,63.8
2022-08-05T00:45:01.250Z,64.0
2022-08-05T00:46:00.320Z,64.0
2022-08-05T00:47:04.047Z,64.3
2022-08-05T00:48:05.390Z,64.2
2022-08-05T00:49:00.269Z,64.2
2022-08-05T00:50:00.298Z,64.6
2022-08-05T00:51:00.287Z,64.8
2022-08-05T00:52:00.249Z,65.0
2022-08-05T00:53:00.332Z,65.0
2022-08-05T00:54:03.023Z,64.9
2022-08-05T00:55:00.868Z,65.0
2022-08-05T00:56:00.253Z,64.9
2022-08-05T00:57:00.291Z,64.8
2022-08-05T00:58:00.783Z,65.1
2022-08-05T00:59:00.431Z,65.2
2022-08-05T01:00:00.989Z,65.1
2022-08-05T01:01:00.405Z,65.2
2022-08-05T01:02:00.324Z,65.4
2022-08-05T01:03:00.270Z,65.1
2022-08-05T01:04:01.299Z,65.3
2022-08-05T01:05:00.261Z,65.3
2022-08-05T01:06:00.416Z,65.2
2022-08-05T01:07:00.267Z,65.5
2022-08-05T01:08:41.929Z,65.6
2022-08-05T01:09:00.235Z,65.7
2022-08-05T01:10:01.609Z,65.6
2022-08-05T01:11:05.250Z,65.9
2022-08-05T01:12:18.120Z,65.8
2022-08-05T01:13:13.342Z,65.2
2022-08-05T01:14:10.167Z,66.2
2022-08-05T01:15:05.730Z,66.3
2022-08-05T01:16:03.723Z,66.3
2022-08-05T01:17:05.253Z,66.3
2022-08-05T01:18:04.060Z,66.3
2022-08-05T01:19:14.359Z,66.5
2022-08-05T01:20:20.132Z,66.3
2022-08-05T01:21:12.011Z,66.9
2022-08-05T01:22:24.374Z,66.8
2022-08-05T01:23:00.260Z,66.8
2022-08-05T01:24:14.191Z,67.1
2022-08-05T01:25:20.164Z,67.1
2022-08-05T01:26:02.285Z,67.1
2022-08-05T01:27:19.227Z,67.3
2022-08-05T01:28:20.133Z,67.3
2022-08-05T01:29:06.294Z,67.3
2022-08-05T01:30:03.029Z,67.3
2022-08-05T01:31:08.326Z,67.5
2022-08-05T01:32:04.325Z,67.5
2022-08-05T01:33:02.573Z,67.5
2022-08-05T01:34:16.334Z,68.0
2022-08-05T01:35:10.774Z,68.0
2022-08-05T01:36:03.791Z,68.0
2022-08-05T01:37:08.966Z,68.1
2022-08-05T01:38:03.597Z,68.1
2022-08-05T01:39:01.456Z,68.1
2022-08-05T01:40:02.119Z,68.2
2022-08-05T01:41:03.325Z,68.2
2022-08-05T01:42:01.985Z,68.3
2022-08-05T01:43:02.486Z,68.0
2022-08-05T01:44:01.181Z,68.2
2022-08-05T01:45:02.365Z,68.5
2022-08-05T01:46:07.439Z,68.8
2022-08-05T01:47:01.659Z,68.5
2022-08-05T01:48:01.601Z,68.9
2022-08-05T01:49:01.131Z,69.0
2022-08-05T01:50:03.234Z,69.0
2022-08-05T01:51:11.999Z,69.0
2022-08-05T01:52:02.632Z,69.1
2022-08-05T01:53:03.390Z,69.4
2022-08-05T01:54:03.884Z,69.1
2022-08-05T01:55:04.696Z,68.9
2022-08-05T01:56:04.444Z,68.9
2022-08-05T01:58:09.770Z,69.1
2022-08-05T01:58:10.721Z,69.0
2022-08-05T01:59:08.035Z,69.1
2022-08-05T02:00:02.461Z,69.1
2022-08-05T02:01:02.100Z,69.3
2022-08-05T02:02:01.710Z,69.1
2022-08-05T02:03:06.286Z,69.5
2022-08-05T02:04:01.978Z,69.5
2022-08-05T02:05:05.365Z,69.6
2022-08-05T02:06:03.604Z,69.6
2022-08-05T02:07:00.818Z,69.8
2022-08-05T02:08:01.228Z,69.9
2022-08-05T02:09:00.770Z,69.8
2022-08-05T02:10:01.030Z,70.1
2022-08-05T02:11:11.596Z,70.3
2022-08-05T02:12:05.153Z,70.2
2022-08-05T02:13:16.369Z,70.6
2022-08-05T02:14:07.800Z,70.5
2022-08-05T02:15:07.294Z,70.2
2022-08-05T02:16:16.360Z,70.2
2022-08-05T02:17:29.664Z,70.4
2022-08-05T02:18:33.178Z,70.4
2022-08-05T02:19:07.245Z,70.5
2022-08-05T02:20:05.564Z,70.5
2022-08-05T02:21:05.783Z,70.3
2022-08-05T02:22:17.483Z,70.8
2022-08-05T02:23:04.452Z,70.6
2022-08-05T02:24:07.093Z,70.9
2022-08-05T02:25:04.219Z,71.0
2022-08-05T02:26:03.751Z,71.0
2022-08-05T02:27:10.053Z,70.7
2022-08-05T02:28:02.274Z,71.2
2022-08-05T02:29:01.349Z,70.8
2022-08-05T02:30:01.408Z,71.0
2022-08-05T02:31:06.170Z,71.0
2022-08-05T02:32:04.709Z,71.0
2022-08-05T02:33:02.439Z,71.1
2022-08-05T02:34:05.500Z,71.3
2022-08-05T02:35:13.791Z,71.3
2022-08-05T02:36:04.008Z,71.0
2022-08-05T02:37:04.361Z,71.2
2022-08-05T02:38:02.386Z,71.2
2022-08-05T02:39:03.532Z,71.3
2022-08-05T02:40:02.148Z,71.2
2022-08-05T02:41:14.798Z,71.4
2022-08-05T02:42:01.866Z,71.9
2022-08-05T02:43:01.210Z,72.4
2022-08-05T02:44:05.892Z,72.1
2022-08-05T02:45:01.321Z,71.7
2022-08-05T02:46:01.083Z,72.1
2022-08-05T02:47:01.775Z,72.0
2022-08-05T02:48:11.775Z,72.1
2022-08-05T02:49:01.385Z,71.9
2022-08-05T02:50:01.023Z,72.1
2022-08-05T02:51:01.700Z,72.0
2022-08-05T02:52:04.006Z,72.1
2022-08-05T02:53:00.804Z,72.2
2022-08-05T02:54:03.450Z,72.6
2022-08-05T02:55:05.082Z,72.9
2022-08-05T02:56:01.956Z,72.9
2022-08-05T02:57:01.154Z,72.8
2022-08-05T02:58:09.832Z,72.9
2022-08-05T02:59:01.098Z,73.2
2022-08-05T03:00:01.438Z,73.2
2022-08-05T03:01:01.965Z,73.3
2022-08-05T03:02:01.371Z,73.1
2022-08-05T03:03:00.811Z,73.4
2022-08-05T03:04:11.877Z,73.4
2022-08-05T03:05:00.968Z,73.4
2022-08-05T03:06:55.332Z,73.5
2022-08-05T03:07:00.746Z,73.4
2022-08-05T03:08:08.660Z,73.7
2022-08-05T03:09:00.754Z,73.6
2022-08-05T03:10:00.609Z,73.9
2022-08-05T03:11:53.641Z,73.9
2022-08-05T03:12:00.281Z,73.9
2022-08-05T03:14:02.715Z,74.2
2022-08-05T03:15:01.218Z,74.3
2022-08-05T03:16:00.210Z,74.2
2022-08-05T03:17:00.384Z,74.6
2022-08-05T03:18:00.211Z,74.1
2022-08-05T03:19:00.488Z,74.6
2022-08-05T03:20:00.432Z,74.7
2022-08-05T03:21:00.211Z,74.6
2022-08-05T03:22:00.290Z,75.0
2022-08-05T03:23:00.913Z,74.8
2022-08-05T03:24:01.131Z,74.7
2022-08-05T03:25:11.655Z,74.9
2022-08-05T03:26:05.045Z,74.8
2022-08-05T03:27:00.510Z,75.0
2022-08-05T03:28:03.324Z,75.5
2022-08-05T03:29:00.654Z,75.1
2022-08-05T03:30:08.747Z,75.3
2022-08-05T03:31:01.245Z,75.4
2022-08-05T03:32:00.799Z,75.9
2022-08-05T03:33:01.695Z,75.6
2022-08-05T03:34:00.392Z,75.4
2022-08-05T03:35:01.454Z,75.6
2022-08-05T03:36:00.519Z,75.8
2022-08-05T03:37:01.067Z,76.1
2022-08-05T03:38:01.159Z,75.7
2022-08-05T03:39:05.352Z,75.5
2022-08-05T03:40:01.479Z,75.5
2022-08-05T03:41:00.285Z,75.8
2022-08-05T03:42:00.356Z,75.9
2022-08-05T03:43:16.076Z,76.0
2022-08-05T03:44:10.342Z,76.0
2022-08-05T03:45:01.716Z,76.2
2022-08-05T03:46:00.681Z,76.0
2022-08-05T03:47:00.208Z,76.3
2022-08-05T03:48:00.407Z,76.1
2022-08-05T03:49:00.213Z,76.0
2022-08-05T03:50:00.468Z,75.5
2022-08-05T03:52:39.292Z,75.9
2022-08-05T03:52:48.778Z,76.1
2022-08-05T03:55:50.144Z,76.2
2022-08-05T03:55:51.936Z,75.8
2022-08-05T03:56:09.851Z,75.9
2022-08-05T03:56:17.089Z,76.0
2022-08-05T03:57:02.364Z,76.0
2022-08-05T03:58:02.947Z,76.2
2022-08-05T03:59:02.906Z,75.8
2022-08-05T04:00:09.533Z,76.2
2022-08-05T04:01:02.458Z,76.2
2022-08-05T04:02:01.633Z,76.4
2022-08-05T04:03:02.909Z,75.9
2022-08-05T04:04:08.979Z,76.1
2022-08-05T04:05:02.703Z,75.5
2022-08-05T04:06:01.187Z,75.7
2022-08-05T04:07:00.937Z,75.7
2022-08-05T04:08:14.765Z,75.9
2022-08-05T04:09:02.407Z,75.9
2022-08-05T04:10:03.021Z,76.1
2022-08-05T04:11:01.323Z,75.5
2022-08-05T04:12:01.158Z,75.7
2022-08-05T04:13:00.349Z,75.5
2022-08-05T04:14:00.661Z,75.5
2022-08-05T04:15:00.419Z,75.8
2022-08-05T04:16:04.534Z,75.7
2022-08-05T04:17:02.933Z,75.5
2022-08-05T04:18:03.203Z,75.3
2022-08-05T04:19:01.038Z,75.7
2022-08-05T04:20:00.442Z,75.5
2022-08-05T04:21:02.383Z,75.7
2022-08-05T04:22:10.401Z,75.9
2022-08-05T04:23:00.283Z,75.8
2022-08-05T04:24:06.359Z,75.6
2022-08-05T04:25:00.293Z,75.5
2022-08-05T04:26:01.060Z,75.6
2022-08-05T04:27:00.219Z,75.3
2022-08-05T04:28:03.972Z,75.2
2022-08-05T04:29:00.971Z,75.6
2022-08-05T04:30:03.790Z,75.4
2022-08-05T04:31:01.024Z,74.8
2022-08-05T04:32:00.290Z,74.4
2022-08-05T04:33:00.262Z,73.8
2022-08-05T04:34:31.960Z,73.7
2022-08-05T04:35:00.550Z,73.7
2022-08-05T04:36:16.064Z,73.6
2022-08-05T04:37:01.235Z,73.6
2022-08-05T04:38:01.669Z,73.8
2022-08-05T04:39:00.290Z,73.9
2022-08-05T04:40:00.258Z,73.6
2022-08-05T04:41:00.256Z,73.2
2022-08-05T04:42:00.300Z,73.3
2022-08-05T04:43:00.263Z,72.4
2022-08-05T04:44:00.249Z,72.3
2022-08-05T04:45:01.028Z,72.0
2022-08-05T04:46:00.373Z,72.5
2022-08-05T04:47:00.276Z,72.6
2022-08-05T04:48:04.845Z,70.6
2022-08-05T04:49:00.296Z,70.6
2022-08-05T04:50:02.685Z,69.2
2022-08-05T04:51:02.736Z,69.0
2022-08-05T04:52:00.768Z,69.1
2022-08-05T04:53:00.225Z,68.8
2022-08-05T04:54:01.226Z,69.5
2022-08-05T04:55:13.839Z,69.0
2022-08-05T04:56:32.832Z,69.5
2022-08-05T04:57:00.276Z,69.6
2022-08-05T04:58:00.260Z,69.4
2022-08-05T04:59:00.236Z,69.2
2022-08-05T05:00:00.358Z,69.2
2022-08-05T05:01:00.249Z,68.7
2022-08-05T05:02:08.338Z,67.5
2022-08-05T05:03:03.771Z,66.6
2022-08-05T05:04:00.269Z,66.1
2022-08-05T05:05:01.951Z,66.0
2022-08-05T05:06:38.856Z,66.4
2022-08-05T05:07:00.235Z,65.8
2022-08-05T05:08:02.654Z,64.7
2022-08-05T05:09:00.680Z,64.5
2022-08-05T05:10:02.176Z,64.1
2022-08-05T05:11:00.259Z,64.5
2022-08-05T05:12:02.848Z,64.2
2022-08-05T05:13:00.389Z,65.4
2022-08-05T05:14:00.319Z,64.7
2022-08-05T05:15:03.713Z,64.3
2022-08-05T05:16:06.095Z,63.4
2022-08-05T05:17:00.319Z,64.3
2022-08-05T05:18:00.478Z,64.1
2022-08-05T05:19:18.671Z,64.8
2022-08-05T05:20:00.257Z,64.1
2022-08-05T05:21:01.633Z,63.9
2022-08-05T05:22:00.236Z,63.2
2022-08-05T05:23:08.169Z,62.6
2022-08-05T05:24:02.889Z,63.7
2022-08-05T05:25:01.315Z,63.7
2022-08-05T05:26:00.298Z,63.3
2022-08-05T05:27:00.317Z,62.5
2022-08-05T05:28:00.311Z,61.7
2022-08-05T05:29:00.558Z,60.4
2022-08-05T05:30:04.250Z,60.2
2022-08-05T05:31:00.253Z,60.9
2022-08-05T05:32:00.234Z,60.1
2022-08-05T05:33:03.517Z,59.8
2022-08-05T05:34:01.867Z,60.2
2022-08-05T05:35:00.248Z,60.0
2022-08-05T05:36:00.264Z,60.6
2022-08-05T05:37:00.216Z,59.9
2022-08-05T05:38:02.404Z,59.2
2022-08-05T05:39:00.385Z,58.3
2022-08-05T05:40:00.375Z,58.6
2022-08-05T05:41:00.310Z,59.0
2022-08-05T05:42:00.292Z,59.1
2022-08-05T05:43:00.275Z,59.3
2022-08-05T05:44:00.824Z,59.0
2022-08-05T05:45:00.212Z,58.4
2022-08-05T05:46:00.230Z,58.0
2022-08-05T05:47:03.976Z,58.7
2022-08-05T05:48:06.392Z,57.9
2022-08-05T05:49:00.268Z,57.8
2022-08-05T05:50:01.502Z,56.7
2022-08-05T05:51:00.424Z,56.1
2022-08-05T05:52:00.293Z,56.0
2022-08-05T05:53:00.267Z,55.2
2022-08-05T05:54:00.274Z,57.2
2022-08-05T05:55:01.879Z,57.0
2022-08-05T05:56:03.177Z,56.6
2022-08-05T05:57:00.218Z,56.2
2022-08-05T05:58:01.975Z,56.3
2022-08-05T05:59:05.098Z,55.9
2022-08-05T06:00:00.237Z,54.9
2022-08-05T06:01:12.480Z,54.0
2022-08-05T06:02:00.279Z,54.1
2022-08-05T06:03:00.869Z,54.4
2022-08-05T06:04:01.906Z,54.5
2022-08-05T06:05:00.433Z,53.0
2022-08-05T06:06:00.223Z,52.6
2022-08-05T06:07:01.575Z,53.2
2022-08-05T06:08:02.108Z,53.9
2022-08-05T06:09:04.072Z,53.8
2022-08-05T06:10:04.670Z,54.0
2022-08-05T06:11:00.624Z,55.0
2022-08-05T06:12:02.534Z,55.3
2022-08-05T06:13:00.295Z,55.4
2022-08-05T06:14:00.797Z,55.0
2022-08-05T06:15:01.327Z,54.4
2022-08-05T06:16:30.167Z,54.5
2022-08-05T06:17:02.279Z,53.8
2022-08-05T06:18:00.214Z,53.8
2022-08-05T06:19:01.970Z,53.4
2022-08-05T06:20:00.436Z,53.2
2022-08-05T06:21:00.307Z,51.8
2022-08-05T06:22:00.316Z,51.5
2022-08-05T06:23:00.218Z,52.0
2022-08-05T06:24:00.213Z,51.8
2022-08-05T06:25:01.502Z,51.3
2022-08-05T06:26:13.512Z,51.5
2022-08-05T06:27:01.045Z,51.7
2022-08-05T06:28:12.174Z,49.7
2022-08-05T06:29:00.233Z,48.5
2022-08-05T06:30:04.298Z,48.6
2022-08-05T06:31:00.249Z,48.4
2022-08-05T06:32:00.213Z,47.6
2022-08-05T06:33:00.248Z,47.8
2022-08-05T06:34:07.071Z,48.4
2022-08-05T06:35:00.394Z,46.5
2022-08-05T06:36:07.872Z,47.4
2022-08-05T06:37:00.307Z,47.5
2022-08-05T06:38:04.243Z,48.9
2022-08-05T06:39:00.280Z,49.9
2022-08-05T06:40:00.430Z,49.4
2022-08-05T06:41:00.312Z,47.8
2022-08-05T06:42:01.344Z,47.6
2022-08-05T06:43:00.426Z,47.1
2022-08-05T06:44:00.770Z,47.5
2022-08-05T06:45:00.256Z,48.2
2022-08-05T06:46:06.539Z,48.5
2022-08-05T06:47:02.406Z,47.9
2022-08-05T06:48:47.408Z,48.4
2022-08-05T06:49:01.132Z,51.1
2022-08-05T06:50:05.001Z,51.8
2022-08-05T06:51:02.004Z,51.6
2022-08-05T06:52:00.365Z,50.1
2022-08-05T06:53:03.779Z,51.0
2022-08-05T06:54:02.346Z,50.9
2022-08-05T06:55:00.430Z,49.5
2022-08-05T06:56:00.847Z,48.4
2022-08-05T06:57:56.624Z,48.3
2022-08-05T06:58:11.800Z,47.5
2022-08-05T06:59:00.974Z,48.8
2022-08-05T07:00:00.277Z,49.2
2022-08-05T07:01:01.833Z,48.4
2022-08-05T07:02:00.255Z,47.7
2022-08-05T07:03:00.223Z,48.1
2022-08-05T07:04:00.670Z,48.1
2022-08-05T07:05:00.288Z,47.0
2022-08-05T07:06:01.153Z,46.5
2022-08-05T07:07:00.226Z,45.9
2022-08-05T07:08:00.242Z,45.2
2022-08-05T07:09:03.731Z,45.6
2022-08-05T07:10:00.226Z,46.0
2022-08-05T07:11:00.284Z,45.5
2022-08-05T07:12:00.806Z,45.2
2022-08-05T07:13:00.297Z,45.8
2022-08-05T07:14:00.324Z,44.9
2022-08-05T07:15:00.211Z,43.7
2022-08-05T07:16:04.636Z,44.3
2022-08-05T07:17:59.255Z,44.3
2022-08-05T07:18:09.288Z,45.3
2022-08-05T07:19:00.245Z,46.1
2022-08-05T07:21:04.683Z,47.1
2022-08-05T07:22:02.405Z,45.8
2022-08-05T07:23:00.328Z,45.7
2022-08-05T07:24:01.256Z,44.8
2022-08-05T07:25:24.116Z,45.3
2022-08-05T07:26:00.360Z,45.5
2022-08-05T07:27:00.279Z,45.1
2022-08-05T07:28:07.271Z,45.4
2022-08-05T07:29:00.254Z,45.3
2022-08-05T07:30:27.639Z,44.6
2022-08-05T07:31:00.442Z,45.5
2022-08-05T07:32:00.205Z,44.5
2022-08-05T07:33:05.171Z,45.2
2022-08-05T07:34:00.371Z,44.3
2022-08-05T07:35:00.282Z,44.5
2022-08-05T07:36:04.336Z,44.6
2022-08-05T07:37:00.211Z,44.4
2022-08-05T07:38:00.296Z,43.9
2022-08-05T07:39:01.311Z,44.6
2022-08-05T07:40:26.510Z,45.7
2022-08-05T07:41:16.882Z,45.9
2022-08-05T07:42:13.102Z,45.6
2022-08-05T07:43:04.738Z,45.0
2022-08-05T07:44:02.315Z,44.4
2022-08-05T07:45:00.383Z,44.6
2022-08-05T07:46:00.373Z,45.0
2022-08-05T07:47:00.302Z,44.3
2022-08-05T07:48:00.396Z,43.5
2022-08-05T07:49:05.525Z,43.3
2022-08-05T07:50:00.315Z,44.9
2022-08-05T07:51:00.229Z,43.4
2022-08-05T07:52:00.275Z,43.2
2022-08-05T07:53:00.218Z,42.9
2022-08-05T07:54:01.772Z,42.9
2022-08-05T07:55:00.212Z,42.0
2022-08-05T07:56:06.082Z,41.8
2022-08-05T07:57:17.695Z,42.3
2022-08-05T07:58:03.100Z,41.2
2022-08-05T07:59:00.218Z,41.4
2022-08-05T08:00:00.605Z,40.8
2022-08-05T08:01:00.508Z,40.8
2022-08-05T08:02:00.277Z,40.7
2022-08-05T08:03:14.730Z,40.7
2022-08-05T08:04:00.216Z,40.5
2022-08-05T08:05:00.763Z,40.2
2022-08-05T08:06:00.360Z,40.8
2022-08-05T08:07:00.275Z,41.4
2022-08-05T08:08:00.745Z,42.5
2022-08-05T08:09:00.324Z,42.3
2022-08-05T08:10:00.662Z,41.2
2022-08-05T08:11:00.251Z,40.7
2022-08-05T08:12:08.322Z,39.1
2022-08-05T08:13:01.486Z,39.2
2022-08-05T08:14:00.878Z,39.2
2022-08-05T08:15:02.187Z,40.0
2022-08-05T08:16:34.790Z,39.4
2022-08-05T08:17:00.214Z,39.7
2022-08-05T08:18:01.794Z,39.2
2022-08-05T08:19:00.221Z,39.4
2022-08-05T08:20:23.422Z,38.7
2022-08-05T08:21:03.536Z,38.5
2022-08-05T08:22:00.217Z,38.6
2022-08-05T08:23:00.264Z,38.9
2022-08-05T08:24:04.902Z,38.3
2022-08-05T08:25:03.341Z,39.2
2022-08-05T08:26:02.809Z,40.0
2022-08-05T08:27:00.934Z,40.8
2022-08-05T08:28:00.313Z,39.1
2022-08-05T08:29:21.870Z,39.0
2022-08-05T08:30:05.749Z,40.4
2022-08-05T08:31:00.243Z,39.6
2022-08-05T08:32:00.256Z,40.3
2022-08-05T08:33:04.650Z,38.9
2022-08-05T08:34:00.225Z,40.0
2022-08-05T08:35:00.250Z,39.7
2022-08-05T08:36:29.507Z,39.4
2022-08-05T08:37:04.670Z,39.6
2022-08-05T08:38:00.544Z,37.5
2022-08-05T08:39:01.615Z,37.0
2022-08-05T08:40:01.011Z,38.4
2022-08-05T08:41:04.567Z,37.4
2022-08-05T08:42:02.299Z,37.4
2022-08-05T08:45:01.618Z,37.8
2022-08-05T08:45:20.552Z,35.8
2022-08-05T08:45:21.058Z,37.3
2022-08-05T08:46:02.249Z,35.9
2022-08-05T08:47:02.200Z,34.2
2022-08-05T08:48:12.418Z,34.7
2022-08-05T08:50:07.725Z,34.3
2022-08-05T08:50:22.656Z,35.2
2022-08-05T08:51:22.320Z,33.6
2022-08-05T08:52:24.186Z,34.9
2022-08-05T08:53:07.843Z,34.9
2022-08-05T08:54:00.834Z,36.1
2022-08-05T08:55:00.691Z,36.2
2022-08-05T08:56:03.980Z,35.6
2022-08-05T08:57:00.442Z,36.3
2022-08-05T08:58:00.346Z,35.8
2022-08-05T08:59:00.390Z,35.7
2022-08-05T09:00:00.395Z,35.4
2022-08-05T09:01:00.993Z,34.3
2022-08-05T09:02:05.108Z,35.6
2022-08-05T09:03:01.043Z,35.6
2022-08-05T09:04:00.518Z,35.2
2022-08-05T09:05:17.294Z,35.0
2022-08-05T09:06:07.843Z,34.2
2022-08-05T09:07:00.214Z,33.6
2022-08-05T09:08:00.322Z,33.6
2022-08-05T09:09:01.119Z,34.9
2022-08-05T09:10:00.340Z,35.9
2022-08-05T09:11:00.506Z,35.9
2022-08-05T09:12:06.036Z,37.0
2022-08-05T09:13:05.242Z,35.2
2022-08-05T09:14:01.101Z,33.8
2022-08-05T09:15:06.108Z,33.9
2022-08-05T09:16:00.513Z,34.2
2022-08-05T09:17:02.788Z,34.1
2022-08-05T09:18:00.376Z,34.1
2022-08-05T09:19:00.274Z,32.8
2022-08-05T09:20:02.402Z,33.5
2022-08-05T09:21:00.340Z,32.7
2022-08-05T09:22:22.620Z,32.9
2022-08-05T09:23:04.884Z,31.7
2022-08-05T09:24:03.357Z,30.8
2022-08-05T09:25:01.915Z,30.5
2022-08-05T09:26:10.340Z,30.0
2022-08-05T09:27:00.258Z,30.0
2022-08-05T09:28:10.249Z,30.6
2022-08-05T09:29:02.896Z,30.6
2022-08-05T09:30:06.061Z,29.5
2022-08-05T09:31:03.459Z,29.7
2022-08-05T09:32:42.019Z,29.6
2022-08-05T09:33:01.073Z,30.1
2022-08-05T09:34:04.519Z,29.9
2022-08-05T09:35:09.502Z,30.2
2022-08-05T09:36:11.675Z,30.2
2022-08-05T09:37:00.239Z,30.2
2022-08-05T09:38:12.611Z,28.9
2022-08-05T09:39:03.460Z,28.1
2022-08-05T09:40:00.294Z,27.1
2022-08-05T09:41:08.202Z,28.2
2022-08-05T09:42:02.386Z,28.2
2022-08-05T09:43:00.647Z,27.3
2022-08-05T09:44:00.272Z,28.4
2022-08-05T09:45:17.642Z,28.0
2022-08-05T09:46:07.570Z,28.0
2022-08-05T09:47:12.426Z,29.3
2022-08-05T09:48:00.304Z,29.3
2022-08-05T09:49:07.930Z,30.5
2022-08-05T09:50:02.118Z,29.5
2022-08-05T09:51:04.475Z,30.3
2022-08-05T09:52:20.159Z,29.8
2022-08-05T09:53:00.574Z,29.8
2022-08-05T09:54:00.943Z,29.3
2022-08-05T09:55:54.943Z,30.4
2022-08-05T09:56:04.721Z,31.1
2022-08-05T09:57:01.323Z,33.3
2022-08-05T09:58:10.654Z,31.3
2022-08-05T09:59:04.243Z,31.3
2022-08-05T10:00:08.264Z,33.0
2022-08-05T10:01:13.521Z,33.0
2022-08-05T10:02:00.335Z,33.5
2022-08-05T10:03:07.795Z,30.0
2022-08-05T10:04:03.565Z,30.0
2022-08-05T10:05:05.948Z,31.4
2022-08-05T10:06:07.281Z,31.4
2022-08-05T10:07:01.668Z,31.1
2022-08-05T10:08:34.893Z,31.5
2022-08-05T10:09:25.145Z,31.7
2022-08-05T10:10:13.990Z,31.7
2022-08-05T10:11:01.783Z,31.5
2022-08-05T10:12:18.698Z,31.8
2022-08-05T10:13:00.259Z,31.8
2022-08-05T10:14:20.158Z,32.8
2022-08-05T10:15:20.378Z,33.2
2022-08-05T10:16:01.547Z,33.2
2022-08-05T10:17:36.811Z,31.5
2022-08-05T10:18:18.314Z,31.6
2022-08-05T10:19:01.049Z,31.6
2022-08-05T10:20:04.518Z,31.8
2022-08-05T10:21:06.178Z,31.7
2022-08-05T10:22:00.240Z,31.5
2022-08-05T10:23:00.922Z,30.4
2022-08-05T10:24:01.329Z,30.5
2022-08-05T10:25:00.263Z,30.4
2022-08-05T10:26:04.941Z,30.9
2022-08-05T10:27:01.250Z,30.9
2022-08-05T10:28:12.846Z,31.1
2022-08-05T10:29:00.503Z,31.5
2022-08-05T10:30:07.024Z,31.4
2022-08-05T10:32:49.009Z,32.3
2022-08-05T10:32:51.493Z,33.0
2022-08-05T10:33:02.772Z,34.2
2022-08-05T10:34:00.763Z,31.6
2022-08-05T10:35:00.697Z,31.3
2022-08-05T10:36:01.872Z,31.2
2022-08-05T10:37:00.269Z,32.8
2022-08-05T10:38:01.801Z,32.0
2022-08-05T10:39:10.485Z,32.4
2022-08-05T10:40:18.389Z,32.4
2022-08-05T10:41:19.350Z,32.8
2022-08-05T10:42:11.545Z,32.5
2022-08-05T10:43:06.976Z,31.4
2022-08-05T10:44:05.575Z,31.9
2022-08-05T10:45:01.584Z,31.9
2022-08-05T10:46:06.193Z,31.3
2022-08-05T10:47:25.752Z,30.9
2022-08-05T10:48:31.962Z,30.3
2022-08-05T10:49:09.902Z,30.2
2022-08-05T10:50:33.259Z,31.4
2022-08-05T10:51:04.011Z,31.4
2022-08-05T10:52:02.829Z,31.4
2022-08-05T10:53:00.356Z,30.2
2022-08-05T10:54:01.774Z,30.1
2022-08-05T10:55:04.573Z,29.9
2022-08-05T10:56:14.572Z,30.0
2022-08-05T10:57:00.255Z,30.0
2022-08-05T10:58:09.609Z,31.2
2022-08-05T10:59:12.094Z,32.1
2022-08-05T11:00:18.169Z,30.8
2022-08-05T11:01:04.681Z,31.1
2022-08-05T11:02:14.449Z,31.0
2022-08-05T11:03:24.646Z,29.9
2022-08-05T11:04:11.251Z,29.8
2022-08-05T11:05:03.539Z,29.8
2022-08-05T11:06:04.411Z,30.1
2022-08-05T11:07:00.222Z,30.1
2022-08-05T11:08:12.713Z,29.9
2022-08-05T11:09:10.208Z,29.9
2022-08-05T11:10:04.036Z,29.9
2022-08-05T11:11:20.130Z,30.0
2022-08-05T11:12:00.388Z,30.0
2022-08-05T11:13:01.269Z,30.1
2022-08-05T11:14:00.946Z,30.0
2022-08-05T11:15:20.532Z,30.1
2022-08-05T11:16:20.173Z,30.8
2022-08-05T11:17:57.565Z,30.9
2022-08-05T11:18:13.632Z,31.6
2022-08-05T11:20:10.821Z,29.4
2022-08-05T11:20:16.694Z,29.4
2022-08-05T11:21:00.985Z,28.9
2022-08-05T11:22:20.130Z,28.9
2022-08-05T11:23:20.126Z,29.0
2022-08-05T11:24:29.870Z,30.3
2022-08-05T11:26:04.684Z,30.4
2022-08-05T11:26:09.223Z,29.7
2022-08-05T11:27:20.131Z,28.8
2022-08-05T11:28:10.181Z,29.2
2022-08-05T11:29:11.841Z,29.2
2022-08-05T11:30:00.299Z,29.4
2022-08-05T11:31:00.206Z,30.1
2022-08-05T11:32:20.182Z,28.4
2022-08-05T11:33:21.167Z,27.9
2022-08-05T11:34:03.635Z,27.9
2022-08-05T11:35:00.340Z,28.8
2022-08-05T11:36:07.780Z,28.5
2022-08-05T11:37:00.364Z,28.5
2022-08-05T11:38:29.337Z,28.8
2022-08-05T11:39:00.372Z,28.4
2022-08-05T11:40:03.628Z,28.7
2022-08-05T11:41:12.805Z,29.7
2022-08-05T11:42:04.471Z,30.0
2022-08-05T11:43:00.460Z,28.3
2022-08-05T11:44:07.032Z,29.0
2022-08-05T11:45:02.947Z,29.0
2022-08-05T11:46:16.088Z,29.7
2022-08-05T11:47:10.488Z,27.7
2022-08-05T11:48:06.315Z,28.0
2022-08-05T11:49:01.332Z,28.0
2022-08-05T11:50:00.464Z,28.4
2022-08-05T11:51:00.883Z,28.7
2022-08-05T11:52:00.578Z,29.0
2022-08-05T11:53:04.061Z,27.0
2022-08-05T11:54:00.436Z,27.6
2022-08-05T11:55:07.795Z,27.3
2022-08-05T11:56:01.941Z,27.3
2022-08-05T11:57:01.943Z,27.4
2022-08-05T11:58:09.771Z,27.4
2022-08-05T11:59:00.266Z,27.7
2022-08-05T12:00:00.304Z,27.2
2022-08-05T12:01:02.271Z,27.5
2022-08-05T12:02:02.437Z,27.1
2022-08-05T12:03:29.461Z,27.1
2022-08-05T12:04:00.233Z,27.1
2022-08-05T12:05:06.829Z,27.0
2022-08-05T12:06:02.359Z,26.9
2022-08-05T12:07:00.350Z,26.9
2022-08-05T12:08:08.028Z,26.8
2022-08-05T12:09:02.370Z,26.7
2022-08-05T12:10:09.132Z,27.1
2022-08-05T12:11:05.490Z,26.8
2022-08-05T12:12:00.379Z,26.9
2022-08-05T12:13:03.083Z,28.4
2022-08-05T12:14:04.226Z,27.2
2022-08-05T12:15:00.259Z,28.5
2022-08-05T12:16:00.264Z,27.9
2022-08-05T12:18:00.588Z,25.9
2022-08-05T12:18:04.216Z,25.9
2022-08-05T12:19:00.785Z,25.9
2022-08-05T12:20:17.214Z,25.6
2022-08-05T12:21:10.365Z,25.8
2022-08-05T12:22:01.305Z,25.8
2022-08-05T12:23:08.955Z,26.2
2022-08-05T12:24:07.034Z,26.0
2022-08-05T12:25:00.256Z,26.0
2022-08-05T12:26:00.268Z,26.7
2022-08-05T12:27:00.512Z,25.4
2022-08-05T12:28:02.394Z,25.9
2022-08-05T12:29:01.547Z,26.2
2022-08-05T12:30:03.888Z,25.5
2022-08-05T12:31:02.291Z,26.6
2022-08-05T12:32:02.225Z,26.5
2022-08-05T12:33:07.330Z,26.5
2022-08-05T12:34:01.942Z,25.9
2022-08-05T12:35:04.053Z,25.8
2022-08-05T12:36:02.874Z,26.4
2022-08-05T12:37:04.392Z,27.1
2022-08-05T12:38:00.388Z,27.1
2022-08-05T12:39:01.657Z,27.7
2022-08-05T12:40:03.696Z,26.6
2022-08-05T12:41:00.331Z,26.8
2022-08-05T12:42:00.345Z,27.0
2022-08-05T12:43:00.215Z,26.1
2022-08-05T12:44:03.593Z,26.8
2022-08-05T12:45:09.565Z,27.1
2022-08-05T12:46:00.264Z,27.1
2022-08-05T12:47:01.779Z,27.1
2022-08-05T12:48:17.637Z,25.8
2022-08-05T12:49:13.781Z,25.6
2022-08-05T12:50:10.500Z,26.1
2022-08-05T12:52:10.625Z,26.0
2022-08-05T12:52:12.512Z,26.0
2022-08-05T12:53:00.266Z,25.6
2022-08-05T12:54:02.416Z,26.2
2022-08-05T12:55:00.311Z,25.7
2022-08-05T12:56:00.226Z,25.7
2022-08-05T12:57:02.596Z,25.7
2022-08-05T12:58:51.534Z,25.6
2022-08-05T12:59:23.881Z,25.1
2022-08-05T13:01:58.386Z,25.1
2022-08-05T13:02:00.417Z,24.6
2022-08-05T13:02:07.868Z,25.1
2022-08-05T13:03:00.928Z,25.6
2022-08-05T13:04:01.620Z,26.0
2022-08-05T13:05:05.016Z,25.6
2022-08-05T13:06:01.240Z,25.6
2022-08-05T13:07:03.121Z,25.3
2022-08-05T13:08:03.879Z,24.9
2022-08-05T13:09:05.935Z,25.5
2022-08-05T13:10:00.233Z,25.5
2022-08-05T13:11:00.683Z,25.4
2022-08-05T13:12:04.196Z,25.4
2022-08-05T13:13:00.267Z,26.1
2022-08-05T13:14:04.842Z,25.7
2022-08-05T13:15:06.732Z,25.2
2022-08-05T13:16:00.220Z,25.6
2022-08-05T13:17:00.317Z,25.7
2022-08-05T13:18:00.264Z,25.9
2022-08-05T13:19:00.491Z,25.9
2022-08-05T13:20:03.476Z,25.6